createdAt,value
2022-10-18T00:00:37.026Z,4.57
2022-10-18T00:05:30.058Z,3.45
2022-10-18T00:10:24.653Z,3.75
2022-10-18T00:12:51.287Z,3.65
2022-10-18T00:17:44.592Z,4.70
2022-10-18T00:20:12.071Z,4.32
2022-10-18T00:22:40.855Z,5.03
2022-10-18T00:25:08.638Z,4.95
2022-10-18T00:27:35.838Z,5.85
2022-10-18T00:30:02.996Z,6.03
2022-10-18T00:32:29.923Z,5.38
2022-10-18T00:34:56.710Z,5.28
2022-10-18T00:37:23.227Z,4.63
2022-10-18T00:42:19.145Z,4.95
2022-10-18T00:44:45.561Z,5.78
2022-10-18T00:47:14.445Z,5.00
2022-10-18T00:49:44.549Z,5.15
2022-10-18T00:52:16.417Z,5.78
2022-10-18T00:54:45.924Z,4.93
2022-10-18T00:57:14.237Z,4.05
2022-10-18T00:59:42.540Z,4.07
2022-10-18T01:02:09.720Z,3.83
2022-10-18T01:04:37.926Z,4.00
2022-10-18T01:07:38.382Z,4.13
2022-10-18T01:10:10.951Z,4.00
2022-10-18T01:13:01.484Z,4.30
2022-10-18T01:15:31.258Z,4.28
2022-10-18T01:18:17.032Z,5.00
2022-10-18T01:21:21.676Z,3.33
2022-10-18T01:24:09.379Z,3.75
2022-10-18T01:30:03.895Z,3.30
2022-10-18T01:32:42.729Z,3.30
2022-10-18T01:35:15.065Z,3.20
2022-10-18T01:37:44.258Z,3.28
2022-10-18T01:40:14.160Z,3.72
2022-10-18T01:42:41.027Z,3.38
2022-10-18T01:45:08.806Z,4.00
2022-10-18T01:47:36.411Z,3.92
2022-10-18T01:50:06.116Z,3.58
2022-10-18T01:52:32.945Z,4.07
2022-10-18T01:55:01.699Z,4.85
2022-10-18T01:57:37.620Z,3.60
2022-10-18T02:00:23.875Z,3.95
2022-10-18T02:02:50.353Z,3.70
2022-10-18T02:05:58.457Z,3.45
2022-10-18T02:08:35.018Z,3.40
2022-10-18T02:11:10.601Z,2.90
2022-10-18T02:13:41.796Z,2.88
2022-10-18T02:16:13.299Z,2.72
2022-10-18T02:18:45.046Z,2.60
2022-10-18T02:21:15.739Z,2.30
2022-10-18T02:23:45.328Z,2.65
2022-10-18T02:26:14.710Z,2.63
2022-10-18T02:28:41.444Z,2.67
2022-10-18T02:31:27.526Z,3.08
2022-10-18T02:33:58.505Z,3.35
2022-10-18T02:36:33.569Z,4.28
2022-10-18T02:39:07.650Z,3.85
2022-10-18T02:41:34.324Z,3.80
2022-10-18T02:44:00.924Z,4.05
2022-10-18T02:48:53.795Z,4.07
2022-10-18T02:53:46.730Z,3.88
2022-10-18T02:58:39.727Z,4.00
2022-10-18T03:03:32.662Z,3.35
2022-10-18T03:08:26.113Z,3.05
2022-10-18T03:10:52.713Z,3.53
2022-10-18T03:15:47.993Z,3.85
2022-10-18T03:18:15.276Z,4.18
2022-10-18T03:20:41.854Z,3.95
2022-10-18T03:25:34.863Z,3.63
2022-10-18T03:30:28.763Z,3.15
2022-10-18T03:35:22.348Z,3.53
2022-10-18T03:37:49.369Z,3.40
2022-10-18T03:40:16.184Z,3.40
2022-10-18T03:42:42.858Z,4.00
2022-10-18T03:45:09.656Z,3.80
2022-10-18T03:47:36.138Z,4.03
2022-10-18T03:50:02.746Z,4.07
2022-10-18T03:52:29.495Z,3.78
2022-10-18T03:54:56.162Z,3.38
2022-10-18T03:59:49.160Z,2.80
2022-10-18T04:04:42.132Z,3.47
2022-10-18T04:09:35.220Z,3.13
2022-10-18T04:14:28.083Z,3.08
2022-10-18T04:19:20.997Z,3.45
2022-10-18T04:24:16.135Z,4.28
2022-10-18T04:26:42.628Z,4.03
2022-10-18T04:31:35.636Z,3.78
2022-10-18T04:36:31.448Z,4.47
2022-10-18T04:38:57.919Z,4.30
2022-10-18T04:41:24.392Z,4.65
2022-10-18T04:46:17.345Z,4.45
2022-10-18T04:51:10.266Z,4.68
2022-10-18T04:56:03.240Z,4.50
2022-10-18T05:00:56.385Z,4.90
2022-10-18T05:03:22.914Z,5.70
2022-10-18T05:08:29.600Z,6.22
2022-10-18T05:10:56.331Z,6.65
2022-10-18T05:13:22.835Z,7.03
2022-10-18T05:15:49.431Z,6.38
2022-10-18T05:20:42.555Z,7.60
2022-10-18T05:25:39.607Z,6.80
2022-10-18T05:28:11.075Z,6.57
2022-10-18T05:30:42.937Z,6.90
2022-10-18T05:33:09.646Z,7.20
2022-10-18T05:35:36.420Z,8.77
2022-10-18T05:38:04.396Z,7.30
2022-10-18T05:40:30.894Z,7.07
2022-10-18T05:45:23.764Z,8.02
2022-10-18T05:50:16.716Z,7.90
2022-10-18T05:55:09.689Z,7.85
2022-10-18T06:00:03.624Z,8.35
2022-10-18T06:02:38.495Z,8.93
2022-10-18T06:05:05.303Z,9.32
2022-10-18T06:07:32.239Z,8.85
2022-10-18T06:09:58.944Z,8.65
2022-10-18T06:14:51.918Z,9.63
2022-10-18T06:19:45.408Z,11.85
2022-10-18T06:22:12.599Z,9.27
2022-10-18T06:24:39.116Z,9.68
2022-10-18T06:29:36.516Z,10.32
2022-10-18T06:32:03.984Z,11.55
2022-10-18T06:34:30.788Z,9.93
2022-10-18T06:36:58.792Z,9.70
2022-10-18T06:39:26.182Z,11.00
2022-10-18T06:41:53.370Z,11.90
2022-10-18T06:44:21.057Z,11.25
2022-10-18T06:46:49.112Z,13.30
2022-10-18T06:49:18.993Z,10.52
2022-10-18T06:51:46.348Z,11.43
2022-10-18T06:54:18.157Z,12.02
2022-10-18T06:56:45.461Z,11.88
2022-10-18T07:01:38.551Z,10.68
2022-10-18T07:04:05.245Z,10.55
2022-10-18T07:08:58.248Z,11.85
2022-10-18T07:16:21.318Z,11.75
2022-10-18T07:18:50.538Z,9.18
2022-10-18T07:21:19.797Z,10.10
2022-10-18T07:23:46.774Z,8.88
2022-10-18T07:26:15.329Z,9.23
2022-10-18T07:28:42.820Z,8.73
2022-10-18T07:31:10.364Z,9.13
2022-10-18T07:33:40.249Z,7.85
2022-10-18T07:36:09.703Z,8.35
2022-10-18T07:38:36.841Z,8.00
2022-10-18T07:41:06.606Z,8.30
2022-10-18T07:43:33.807Z,7.60
2022-10-18T07:46:02.923Z,8.88
2022-10-18T07:48:29.907Z,8.77
2022-10-18T07:51:01.317Z,8.25
2022-10-18T07:53:31.240Z,8.05
2022-10-18T07:56:01.384Z,8.05
2022-10-18T07:58:32.295Z,8.82
2022-10-18T08:01:04.188Z,8.25
2022-10-18T08:03:31.260Z,8.10
2022-10-18T08:05:58.268Z,8.20
2022-10-18T08:08:27.301Z,8.18
2022-10-18T08:10:53.998Z,7.57
2022-10-18T08:13:21.111Z,7.60
2022-10-18T08:15:47.743Z,7.70
2022-10-18T08:20:45.217Z,6.97
2022-10-18T08:23:12.025Z,7.13
2022-10-18T08:25:38.673Z,8.43
2022-10-18T08:28:05.350Z,7.57
2022-10-18T08:30:31.956Z,7.65
2022-10-18T08:35:24.953Z,8.32
2022-10-18T08:40:18.103Z,7.78
2022-10-18T08:42:54.771Z,6.05
2022-10-18T08:45:37.315Z,8.07
2022-10-18T08:48:06.320Z,7.43
2022-10-18T08:50:36.780Z,7.82
2022-10-18T08:53:16.645Z,7.40
2022-10-18T08:55:48.889Z,7.15
2022-10-18T08:58:26.692Z,6.93
2022-10-18T09:01:09.703Z,7.38
2022-10-18T09:04:00.859Z,7.15
2022-10-18T09:06:39.186Z,7.75
2022-10-18T09:09:20.826Z,7.78
2022-10-18T09:12:13.422Z,8.45
2022-10-18T09:15:05.448Z,7.78
2022-10-18T09:17:41.144Z,8.32
2022-10-18T09:20:24.768Z,7.18
2022-10-18T09:22:54.356Z,7.28
2022-10-18T09:25:36.348Z,7.43
2022-10-18T09:28:54.008Z,7.93
2022-10-18T09:31:52.516Z,7.60
2022-10-18T09:34:45.117Z,7.85
2022-10-18T09:37:14.848Z,7.22
2022-10-18T09:39:42.511Z,7.25
2022-10-18T09:42:26.968Z,6.93
2022-10-18T09:45:19.105Z,7.40
2022-10-18T09:47:51.341Z,6.90
2022-10-18T09:50:38.289Z,7.50
2022-10-18T09:53:25.550Z,6.88
2022-10-18T09:56:03.601Z,7.13
2022-10-18T09:58:44.154Z,6.60
2022-10-18T10:01:14.241Z,6.47
2022-10-18T10:03:42.153Z,5.60
2022-10-18T10:06:11.671Z,6.45
2022-10-18T10:08:42.938Z,7.25
2022-10-18T10:11:45.481Z,5.90
2022-10-18T10:14:26.529Z,5.30
2022-10-18T10:32:48.629Z,6.28
2022-10-18T10:35:33.905Z,6.50
2022-10-18T10:38:22.788Z,5.97
2022-10-18T10:40:50.400Z,5.45
2022-10-18T10:43:36.920Z,4.78
2022-10-18T10:46:13.954Z,4.95
2022-10-18T10:49:27.820Z,4.95
2022-10-18T10:52:08.099Z,4.63
2022-10-18T10:54:50.294Z,5.43
2022-10-18T10:57:27.646Z,5.20
2022-10-18T10:59:57.043Z,4.80
2022-10-18T11:02:32.175Z,4.38
2022-10-18T11:05:24.446Z,4.30
2022-10-18T11:07:54.829Z,4.45
2022-10-18T11:10:29.633Z,4.97
2022-10-18T11:13:23.267Z,4.38
2022-10-18T11:15:57.205Z,4.38
2022-10-18T11:18:34.521Z,3.65
2022-10-18T11:21:24.710Z,3.60
2022-10-18T11:23:51.347Z,4.20
2022-10-18T11:26:32.653Z,4.78
2022-10-18T11:29:30.182Z,3.47
2022-10-18T11:32:19.487Z,4.40
2022-10-18T11:34:56.945Z,3.42
2022-10-18T11:37:54.380Z,4.28
2022-10-18T11:40:51.447Z,3.35
2022-10-18T11:44:01.830Z,4.72
2022-10-18T11:46:47.448Z,3.80
2022-10-18T11:49:35.190Z,5.15
2022-10-18T11:52:11.618Z,6.28
2022-10-18T11:55:05.315Z,4.75
2022-10-18T11:58:20.144Z,4.10
2022-10-18T12:00:51.919Z,4.90
2022-10-18T12:03:27.956Z,3.55
2022-10-18T12:05:57.617Z,4.13
2022-10-18T12:08:38.809Z,3.70
2022-10-18T12:11:30.714Z,4.00
2022-10-18T12:14:03.330Z,4.25
2022-10-18T12:16:50.407Z,3.20
2022-10-18T12:19:26.207Z,4.22
2022-10-18T12:21:56.511Z,4.82
2022-10-18T12:24:28.834Z,3.42
2022-10-18T12:26:59.481Z,3.28
2022-10-18T12:29:35.151Z,3.78
2022-10-18T12:32:07.805Z,3.47
2022-10-18T12:34:51.908Z,3.45
2022-10-18T12:37:27.655Z,3.85
2022-10-18T12:40:13.503Z,4.20
2022-10-18T12:42:46.890Z,4.05
2022-10-18T12:45:13.365Z,3.33
2022-10-18T12:50:28.099Z,3.67
2022-10-18T12:53:17.885Z,3.63
2022-10-18T12:55:47.850Z,3.90
2022-10-18T12:58:14.343Z,3.33
2022-10-18T13:03:10.306Z,3.67
2022-10-18T13:05:54.423Z,3.47
2022-10-18T13:08:28.079Z,3.88
2022-10-18T13:11:12.764Z,3.90
2022-10-18T13:14:06.872Z,4.15
2022-10-18T13:16:46.713Z,4.30
2022-10-18T13:20:02.914Z,3.95
2022-10-18T13:22:58.251Z,3.47
2022-10-18T13:28:00.929Z,4.45
2022-10-18T13:30:31.483Z,4.10
2022-10-18T13:33:31.608Z,4.63
2022-10-18T13:36:22.477Z,4.70
2022-10-18T13:38:57.163Z,4.40
2022-10-18T13:41:26.833Z,3.83
2022-10-18T13:44:10.384Z,3.80
2022-10-18T13:46:36.820Z,3.85
2022-10-18T13:52:40.391Z,5.10
2022-10-18T13:55:43.152Z,4.53
2022-10-18T13:58:24.590Z,4.22
2022-10-18T14:00:51.033Z,3.38
2022-10-18T14:03:55.047Z,4.78
2022-10-18T14:06:20.177Z,4.82
2022-10-18T14:08:54.290Z,4.88
2022-10-18T14:11:46.169Z,4.63
2022-10-18T14:14:31.684Z,4.43
2022-10-18T14:17:04.443Z,4.55
2022-10-18T14:19:39.807Z,3.72
2022-10-18T14:22:15.470Z,4.35
2022-10-18T14:24:46.650Z,3.72
2022-10-18T14:27:26.232Z,3.22
2022-10-18T14:30:08.064Z,3.70
2022-10-18T14:32:36.020Z,4.15
2022-10-18T14:35:30.996Z,4.15
2022-10-18T14:37:51.751Z,4.00
2022-10-18T14:40:39.007Z,4.57
2022-10-18T14:43:15.102Z,4.40
2022-10-18T14:45:42.944Z,3.47
2022-10-18T14:48:18.194Z,4.15
2022-10-18T14:50:47.202Z,3.72
2022-10-18T14:53:21.908Z,4.40
2022-10-18T14:56:03.281Z,4.63
2022-10-18T14:58:30.550Z,4.47
2022-10-18T15:00:58.941Z,4.47
2022-10-18T15:03:28.209Z,3.80
2022-10-18T15:06:05.126Z,3.08
2022-10-18T15:08:40.548Z,3.10
2022-10-18T15:11:11.856Z,3.83
2022-10-18T15:13:52.079Z,3.40
2022-10-18T15:16:20.454Z,2.70
2022-10-18T15:19:07.260Z,2.70
2022-10-18T15:21:36.132Z,3.30
2022-10-18T15:24:29.635Z,2.88
2022-10-18T15:27:00.498Z,3.42
2022-10-18T15:29:32.341Z,2.60
2022-10-18T15:32:07.748Z,3.00
2022-10-18T15:34:35.258Z,3.92
2022-10-18T15:37:16.718Z,3.85
2022-10-18T15:39:43.316Z,2.97
2022-10-18T15:42:38.764Z,2.97
2022-10-18T15:45:25.757Z,3.05
2022-10-18T15:48:10.672Z,3.95
2022-10-18T15:50:42.731Z,2.88
2022-10-18T15:53:21.321Z,3.05
2022-10-18T15:55:47.988Z,2.90
2022-10-18T15:58:27.433Z,2.67
2022-10-18T16:01:00.981Z,2.85
2022-10-18T16:03:28.426Z,3.10
2022-10-18T16:06:07.552Z,3.22
2022-10-18T16:08:40.911Z,4.15
2022-10-18T16:11:12.460Z,3.63
2022-10-18T16:13:38.980Z,3.80
2022-10-18T16:18:31.956Z,3.90
2022-10-18T16:23:28.627Z,4.60
2022-10-18T16:25:55.814Z,5.55
2022-10-18T16:28:25.072Z,10.13
2022-10-18T16:30:54.715Z,8.20
2022-10-18T16:33:21.722Z,4.30
2022-10-18T16:35:48.789Z,4.53
2022-10-18T16:38:44.800Z,3.97
2022-10-18T16:41:13.319Z,4.45
2022-10-18T16:43:39.889Z,4.40
2022-10-18T16:48:33.899Z,4.20
2022-10-18T16:51:01.615Z,4.97
2022-10-18T16:53:28.736Z,5.50
2022-10-18T16:56:01.760Z,5.88
2022-10-18T16:58:29.916Z,5.10
2022-10-18T17:00:57.372Z,5.25
2022-10-18T17:03:24.742Z,5.47
2022-10-18T17:05:52.129Z,6.07
2022-10-18T17:08:28.523Z,5.93
2022-10-18T17:10:58.177Z,6.18
2022-10-18T17:13:25.952Z,6.63
2022-10-18T17:15:53.079Z,7.55
2022-10-18T17:18:22.263Z,8.00
2022-10-18T17:20:49.568Z,7.45
2022-10-18T17:23:16.408Z,7.97
2022-10-18T17:25:57.431Z,8.43
2022-10-18T17:28:31.269Z,8.85
2022-10-18T17:30:57.937Z,8.73
2022-10-18T17:33:24.442Z,7.38
2022-10-18T17:35:50.935Z,7.55
2022-10-18T17:40:44.134Z,6.57
2022-10-18T17:43:13.232Z,5.85
2022-10-18T17:45:51.066Z,6.72
2022-10-18T17:48:17.825Z,7.45
2022-10-18T17:50:44.457Z,6.78
2022-10-18T17:53:12.888Z,5.90
2022-10-18T17:55:39.957Z,5.80
2022-10-18T17:58:06.506Z,6.03
2022-10-18T18:03:00.615Z,7.95
2022-10-18T18:05:30.998Z,8.13
2022-10-18T18:08:02.723Z,8.13
2022-10-18T18:10:33.504Z,7.03
2022-10-18T18:13:00.608Z,6.93
2022-10-18T18:15:27.394Z,6.53
2022-10-18T18:20:25.502Z,7.18
2022-10-18T18:22:52.013Z,7.80
2022-10-18T18:27:45.050Z,6.50
2022-10-18T18:32:39.568Z,8.00
2022-10-18T18:37:32.766Z,10.38
2022-10-18T18:42:25.709Z,5.65
2022-10-18T18:47:23.471Z,5.25
2022-10-18T18:49:51.547Z,6.22
2022-10-18T18:52:18.018Z,6.03
2022-10-18T18:54:45.007Z,5.82
2022-10-18T18:57:11.474Z,6.07
2022-10-18T18:59:37.921Z,5.80
2022-10-18T19:02:04.383Z,4.75
2022-10-18T19:04:31.051Z,4.70
2022-10-18T19:06:57.639Z,5.07
2022-10-18T19:11:54.250Z,5.10
2022-10-18T19:16:58.736Z,4.97
2022-10-18T19:19:27.624Z,4.40
2022-10-18T19:21:56.710Z,4.68
2022-10-18T19:24:24.736Z,4.47
2022-10-18T19:27:03.565Z,4.35
2022-10-18T19:29:32.102Z,4.25
2022-10-18T19:32:01.976Z,4.15
2022-10-18T19:34:30.456Z,4.75
2022-10-18T19:36:57.106Z,4.85
2022-10-18T19:39:25.956Z,4.05
2022-10-18T19:41:55.404Z,4.85
2022-10-18T19:44:23.438Z,5.45
2022-10-18T19:46:49.986Z,4.43
2022-10-18T19:51:43.479Z,4.07
2022-10-18T19:54:12.032Z,5.35
2022-10-18T19:56:38.831Z,4.82
2022-10-18T19:59:05.398Z,5.38
2022-10-18T20:03:58.947Z,5.95
2022-10-18T20:06:25.756Z,4.80
2022-10-18T20:08:52.959Z,5.65
2022-10-18T20:11:22.634Z,5.38
2022-10-18T20:13:49.674Z,5.35
2022-10-18T20:16:18.662Z,5.25
2022-10-18T20:18:45.427Z,5.32
2022-10-18T20:21:14.660Z,5.00
2022-10-18T20:23:42.420Z,5.22
2022-10-18T20:26:20.586Z,5.15
2022-10-18T20:28:59.446Z,5.97
2022-10-18T20:31:29.138Z,5.78
2022-10-18T20:33:58.728Z,6.20
2022-10-18T20:36:26.724Z,6.13
2022-10-18T20:38:53.378Z,6.18
2022-10-18T20:41:25.852Z,5.53
2022-10-18T20:43:54.703Z,5.57
2022-10-18T20:46:21.928Z,5.72
2022-10-18T20:48:49.937Z,6.30
2022-10-18T20:51:19.534Z,7.03
2022-10-18T20:53:46.641Z,7.15
2022-10-18T20:56:15.921Z,7.55
2022-10-18T20:58:44.190Z,7.28
2022-10-18T21:01:25.164Z,8.20
2022-10-18T21:03:53.392Z,7.65
2022-10-18T21:06:25.659Z,8.02
2022-10-18T21:08:57.179Z,8.32
2022-10-18T21:11:24.807Z,8.50
2022-10-18T21:13:52.810Z,7.65
2022-10-18T21:16:19.396Z,8.68
2022-10-18T21:21:15.490Z,9.68
2022-10-18T21:23:42.369Z,8.35
2022-10-18T21:26:17.160Z,8.93
2022-10-18T21:28:44.642Z,9.60
2022-10-18T21:31:20.120Z,8.80
2022-10-18T21:33:47.668Z,8.43
2022-10-18T21:36:14.829Z,8.45
2022-10-18T21:38:45.536Z,8.07
2022-10-18T21:41:14.523Z,7.85
2022-10-18T21:43:43.708Z,6.57
2022-10-18T21:46:11.602Z,6.93
2022-10-18T21:48:38.853Z,6.95
2022-10-18T21:51:07.392Z,8.65
2022-10-18T21:53:34.404Z,8.88
2022-10-18T21:56:06.275Z,8.52
2022-10-18T21:58:32.914Z,10.40
2022-10-18T22:17:39.837Z,7.25
2022-10-18T22:22:32.965Z,7.15
2022-10-18T22:24:59.501Z,8.73
2022-10-18T22:29:53.410Z,8.40
2022-10-18T22:32:19.883Z,9.60
2022-10-18T22:34:46.425Z,9.15
2022-10-18T22:39:39.358Z,8.18
2022-10-18T22:42:06.237Z,8.82
2022-10-18T22:44:36.192Z,9.85
2022-10-18T22:47:03.578Z,8.75
2022-10-18T22:49:30.096Z,8.75
2022-10-18T22:54:23.079Z,8.80
2022-10-18T22:59:16.668Z,8.90
2022-10-18T23:04:10.223Z,9.40
2022-10-18T23:06:36.808Z,9.95
2022-10-18T23:11:32.565Z,8.93
2022-10-18T23:13:59.076Z,9.07
2022-10-18T23:18:54.441Z,7.93
2022-10-18T23:21:23.739Z,7.72
2022-10-18T23:23:50.930Z,6.70
2022-10-18T23:26:23.227Z,6.00
2022-10-18T23:28:51.918Z,5.90
2022-10-18T23:31:21.334Z,8.48
2022-10-18T23:33:49.515Z,6.93
2022-10-18T23:36:16.766Z,6.80
2022-10-18T23:38:44.365Z,7.15
2022-10-18T23:41:12.865Z,7.40
2022-10-18T23:43:39.975Z,8.27
2022-10-18T23:46:07.124Z,6.45
2022-10-18T23:48:34.317Z,4.85
2022-10-18T23:51:02.266Z,5.15
2022-10-18T23:53:28.956Z,5.22
2022-10-18T23:56:00.770Z,4.55
2022-10-18T23:58:29.641Z,4.35
